sensor_id;sensor_type;location;lat;lon;timestamp;P1;durP1;ratioP1;P2;durP2;ratioP2
22603;SDS011;11469;49.024;8.246;2024-01-30T00:01:36;25.85;;;14.73;;
22603;SDS011;11469;49.024;8.246;2024-01-30T00:04:02;25.98;;;14.73;;
22603;SDS011;11469;49.024;8.246;2024-01-30T00:06:27;25.27;;;14.35;;
22603;SDS011;11469;49.024;8.246;2024-01-30T00:08:52;37.35;;;15.30;;
22603;SDS011;11469;49.024;8.246;2024-01-30T00:11:18;24.48;;;13.45;;
22603;SDS011;11469;49.024;8.246;2024-01-30T00:13:44;24.10;;;12.15;;
22603;SDS011;11469;49.024;8.246;2024-01-30T00:16:19;23.35;;;13.50;;
22603;SDS011;11469;49.024;8.246;2024-01-30T00:18:45;28.50;;;13.32;;
22603;SDS011;11469;49.024;8.246;2024-01-30T00:21:11;25.23;;;12.80;;
22603;SDS011;11469;49.024;8.246;2024-01-30T00:23:36;22.10;;;13.18;;
22603;SDS011;11469;49.024;8.246;2024-01-30T00:26:01;27.52;;;14.35;;
22603;SDS011;11469;49.024;8.246;2024-01-30T00:28:27;25.40;;;13.90;;
22603;SDS011;11469;49.024;8.246;2024-01-30T00:30:52;21.27;;;12.65;;
22603;SDS011;11469;49.024;8.246;2024-01-30T00:33:18;23.17;;;14.35;;
22603;SDS011;11469;49.024;8.246;2024-01-30T00:35:43;24.77;;;13.80;;
22603;SDS011;11469;49.024;8.246;2024-01-30T00:38:08;23.27;;;14.00;;
22603;SDS011;11469;49.024;8.246;2024-01-30T00:40:34;22.02;;;13.02;;
22603;SDS011;11469;49.024;8.246;2024-01-30T00:42:59;23.70;;;13.32;;
22603;SDS011;11469;49.024;8.246;2024-01-30T00:45:25;24.60;;;13.32;;
22603;SDS011;11469;49.024;8.246;2024-01-30T00:47:50;23.50;;;13.23;;
22603;SDS011;11469;49.024;8.246;2024-01-30T00:50:15;22.73;;;12.55;;
22603;SDS011;11469;49.024;8.246;2024-01-30T00:52:41;25.83;;;14.68;;
22603;SDS011;11469;49.024;8.246;2024-01-30T00:55:07;20.05;;;11.77;;
22603;SDS011;11469;49.024;8.246;2024-01-30T00:57:32;24.27;;;12.82;;
22603;SDS011;11469;49.024;8.246;2024-01-30T00:59:58;21.38;;;12.70;;
22603;SDS011;11469;49.024;8.246;2024-01-30T01:02:23;23.10;;;12.35;;
22603;SDS011;11469;49.024;8.246;2024-01-30T01:04:48;21.55;;;13.13;;
22603;SDS011;11469;49.024;8.246;2024-01-30T01:07:14;22.52;;;13.10;;
22603;SDS011;11469;49.024;8.246;2024-01-30T01:09:39;25.02;;;13.55;;
22603;SDS011;11469;49.024;8.246;2024-01-30T01:12:05;50.45;;;24.02;;
22603;SDS011;11469;49.024;8.246;2024-01-30T01:14:30;32.72;;;17.73;;
22603;SDS011;11469;49.024;8.246;2024-01-30T01:16:56;28.65;;;13.73;;
22603;SDS011;11469;49.024;8.246;2024-01-30T01:19:21;24.17;;;12.45;;
22603;SDS011;11469;49.024;8.246;2024-01-30T01:21:47;23.42;;;13.32;;
22603;SDS011;11469;49.024;8.246;2024-01-30T01:24:12;25.92;;;12.88;;
22603;SDS011;11469;49.024;8.246;2024-01-30T01:26:38;20.02;;;12.57;;
22603;SDS011;11469;49.024;8.246;2024-01-30T01:29:04;21.63;;;12.43;;
22603;SDS011;11469;49.024;8.246;2024-01-30T01:31:35;22.42;;;12.82;;
22603;SDS011;11469;49.024;8.246;2024-01-30T01:34:05;22.23;;;12.38;;
22603;SDS011;11469;49.024;8.246;2024-01-30T01:36:31;23.70;;;12.70;;
22603;SDS011;11469;49.024;8.246;2024-01-30T01:38:56;24.60;;;13.80;;
22603;SDS011;11469;49.024;8.246;2024-01-30T01:41:21;23.52;;;13.07;;
22603;SDS011;11469;49.024;8.246;2024-01-30T01:43:47;21.25;;;12.90;;
22603;SDS011;11469;49.024;8.246;2024-01-30T01:46:12;20.60;;;13.10;;
22603;SDS011;11469;49.024;8.246;2024-01-30T01:48:37;22.10;;;13.45;;
22603;SDS011;11469;49.024;8.246;2024-01-30T01:51:04;21.20;;;12.38;;
22603;SDS011;11469;49.024;8.246;2024-01-30T01:53:30;21.20;;;12.25;;
22603;SDS011;11469;49.024;8.246;2024-01-30T01:55:56;23.13;;;12.77;;
22603;SDS011;11469;49.024;8.246;2024-01-30T01:58:21;26.73;;;13.60;;
22603;SDS011;11469;49.024;8.246;2024-01-30T02:00:48;27.90;;;13.85;;
22603;SDS011;11469;49.024;8.246;2024-01-30T02:03:16;26.02;;;13.80;;
22603;SDS011;11469;49.024;8.246;2024-01-30T02:05:46;25.00;;;13.18;;
22603;SDS011;11469;49.024;8.246;2024-01-30T02:08:11;26.25;;;14.23;;
22603;SDS011;11469;49.024;8.246;2024-01-30T02:10:37;27.35;;;14.25;;
22603;SDS011;11469;49.024;8.246;2024-01-30T02:13:02;26.05;;;14.40;;
22603;SDS011;11469;49.024;8.246;2024-01-30T02:15:28;29.17;;;15.35;;
22603;SDS011;11469;49.024;8.246;2024-01-30T02:17:54;28.27;;;16.33;;
22603;SDS011;11469;49.024;8.246;2024-01-30T02:20:19;26.77;;;16.15;;
22603;SDS011;11469;49.024;8.246;2024-01-30T02:22:46;32.72;;;14.65;;
22603;SDS011;11469;49.024;8.246;2024-01-30T02:25:14;25.30;;;14.77;;
22603;SDS011;11469;49.024;8.246;2024-01-30T02:27:40;26.63;;;14.25;;
22603;SDS011;11469;49.024;8.246;2024-01-30T02:30:05;27.13;;;14.77;;
22603;SDS011;11469;49.024;8.246;2024-01-30T02:32:31;28.23;;;15.15;;
22603;SDS011;11469;49.024;8.246;2024-01-30T02:34:56;32.08;;;16.25;;
22603;SDS011;11469;49.024;8.246;2024-01-30T02:37:22;26.95;;;13.98;;
22603;SDS011;11469;49.024;8.246;2024-01-30T02:39:47;22.17;;;13.52;;
22603;SDS011;11469;49.024;8.246;2024-01-30T02:42:12;24.85;;;14.98;;
22603;SDS011;11469;49.024;8.246;2024-01-30T02:44:38;28.00;;;14.45;;
22603;SDS011;11469;49.024;8.246;2024-01-30T02:47:03;27.67;;;14.00;;
22603;SDS011;11469;49.024;8.246;2024-01-30T02:49:29;24.67;;;13.80;;
22603;SDS011;11469;49.024;8.246;2024-01-30T02:51:54;24.00;;;13.30;;
22603;SDS011;11469;49.024;8.246;2024-01-30T02:54:21;31.83;;;13.80;;
22603;SDS011;11469;49.024;8.246;2024-01-30T02:56:47;23.88;;;13.85;;
22603;SDS011;11469;49.024;8.246;2024-01-30T02:59:13;27.30;;;14.68;;
22603;SDS011;11469;49.024;8.246;2024-01-30T03:01:42;26.20;;;14.50;;
22603;SDS011;11469;49.024;8.246;2024-01-30T03:04:11;30.00;;;14.25;;
22603;SDS011;11469;49.024;8.246;2024-01-30T03:06:37;28.73;;;15.27;;
22603;SDS011;11469;49.024;8.246;2024-01-30T03:09:02;25.92;;;14.10;;
22603;SDS011;11469;49.024;8.246;2024-01-30T03:11:28;22.90;;;13.02;;
22603;SDS011;11469;49.024;8.246;2024-01-30T03:13:53;26.40;;;14.68;;
22603;SDS011;11469;49.024;8.246;2024-01-30T03:16:19;22.70;;;13.93;;
22603;SDS011;11469;49.024;8.246;2024-01-30T03:18:44;27.30;;;14.60;;
22603;SDS011;11469;49.024;8.246;2024-01-30T03:21:09;28.63;;;14.20;;
22603;SDS011;11469;49.024;8.246;2024-01-30T03:23:35;28.35;;;14.70;;
22603;SDS011;11469;49.024;8.246;2024-01-30T03:26:00;23.92;;;14.38;;
22603;SDS011;11469;49.024;8.246;2024-01-30T03:28:25;25.67;;;14.52;;
22603;SDS011;11469;49.024;8.246;2024-01-30T03:30:51;27.75;;;15.50;;
22603;SDS011;11469;49.024;8.246;2024-01-30T03:33:16;27.83;;;15.50;;
22603;SDS011;11469;49.024;8.246;2024-01-30T03:35:42;31.48;;;16.55;;
22603;SDS011;11469;49.024;8.246;2024-01-30T03:38:07;26.70;;;15.52;;
22603;SDS011;11469;49.024;8.246;2024-01-30T03:40:33;27.35;;;14.43;;
22603;SDS011;11469;49.024;8.246;2024-01-30T03:42:58;29.00;;;15.52;;
22603;SDS011;11469;49.024;8.246;2024-01-30T03:45:24;27.77;;;14.95;;
22603;SDS011;11469;49.024;8.246;2024-01-30T03:47:49;30.38;;;17.65;;
22603;SDS011;11469;49.024;8.246;2024-01-30T03:50:14;31.13;;;17.02;;
22603;SDS011;11469;49.024;8.246;2024-01-30T03:52:40;32.97;;;18.10;;
22603;SDS011;11469;49.024;8.246;2024-01-30T03:55:05;38.22;;;20.63;;
22603;SDS011;11469;49.024;8.246;2024-01-30T03:57:31;40.90;;;19.90;;
22603;SDS011;11469;49.024;8.246;2024-01-30T03:59:56;32.50;;;18.25;;
22603;SDS011;11469;49.024;8.246;2024-01-30T04:02:21;32.63;;;17.63;;
22603;SDS011;11469;49.024;8.246;2024-01-30T04:04:47;34.20;;;17.77;;
22603;SDS011;11469;49.024;8.246;2024-01-30T04:07:12;31.77;;;17.60;;
22603;SDS011;11469;49.024;8.246;2024-01-30T04:09:38;31.35;;;16.50;;
22603;SDS011;11469;49.024;8.246;2024-01-30T04:12:03;31.17;;;16.15;;
22603;SDS011;11469;49.024;8.246;2024-01-30T04:14:29;31.13;;;17.38;;
22603;SDS011;11469;49.024;8.246;2024-01-30T04:16:55;29.35;;;16.05;;
22603;SDS011;11469;49.024;8.246;2024-01-30T04:19:21;33.65;;;18.35;;
22603;SDS011;11469;49.024;8.246;2024-01-30T04:21:46;33.70;;;18.70;;
22603;SDS011;11469;49.024;8.246;2024-01-30T04:24:11;34.05;;;19.00;;
22603;SDS011;11469;49.024;8.246;2024-01-30T04:26:37;36.65;;;18.55;;
22603;SDS011;11469;49.024;8.246;2024-01-30T04:29:02;35.22;;;17.60;;
22603;SDS011;11469;49.024;8.246;2024-01-30T04:31:27;32.25;;;18.08;;
22603;SDS011;11469;49.024;8.246;2024-01-30T04:33:53;41.67;;;20.75;;
22603;SDS011;11469;49.024;8.246;2024-01-30T04:36:18;33.70;;;19.02;;
22603;SDS011;11469;49.024;8.246;2024-01-30T04:38:44;36.95;;;19.67;;
22603;SDS011;11469;49.024;8.246;2024-01-30T04:41:09;34.33;;;19.35;;
22603;SDS011;11469;49.024;8.246;2024-01-30T04:43:34;37.28;;;20.33;;
22603;SDS011;11469;49.024;8.246;2024-01-30T04:46:00;30.73;;;18.98;;
22603;SDS011;11469;49.024;8.246;2024-01-30T04:48:26;32.40;;;19.92;;
22603;SDS011;11469;49.024;8.246;2024-01-30T04:50:52;36.53;;;19.50;;
22603;SDS011;11469;49.024;8.246;2024-01-30T04:53:17;38.42;;;18.20;;
22603;SDS011;11469;49.024;8.246;2024-01-30T04:55:43;34.72;;;18.67;;
22603;SDS011;11469;49.024;8.246;2024-01-30T04:58:08;33.45;;;19.40;;
22603;SDS011;11469;49.024;8.246;2024-01-30T05:00:33;32.63;;;17.88;;
22603;SDS011;11469;49.024;8.246;2024-01-30T05:02:59;35.53;;;19.10;;
22603;SDS011;11469;49.024;8.246;2024-01-30T05:05:24;38.75;;;19.33;;
22603;SDS011;11469;49.024;8.246;2024-01-30T05:07:50;33.33;;;18.90;;
22603;SDS011;11469;49.024;8.246;2024-01-30T05:10:15;32.55;;;18.40;;
22603;SDS011;11469;49.024;8.246;2024-01-30T05:12:40;38.47;;;20.10;;
22603;SDS011;11469;49.024;8.246;2024-01-30T05:15:06;31.65;;;18.88;;
22603;SDS011;11469;49.024;8.246;2024-01-30T05:17:31;40.40;;;18.92;;
22603;SDS011;11469;49.024;8.246;2024-01-30T05:19:58;34.67;;;20.08;;
22603;SDS011;11469;49.024;8.246;2024-01-30T05:22:23;32.88;;;19.00;;
22603;SDS011;11469;49.024;8.246;2024-01-30T05:24:49;36.42;;;21.25;;
22603;SDS011;11469;49.024;8.246;2024-01-30T05:27:14;37.42;;;20.70;;
22603;SDS011;11469;49.024;8.246;2024-01-30T05:29:40;35.72;;;20.38;;
22603;SDS011;11469;49.024;8.246;2024-01-30T05:32:06;38.85;;;20.83;;
22603;SDS011;11469;49.024;8.246;2024-01-30T05:34:31;38.58;;;20.92;;
22603;SDS011;11469;49.024;8.246;2024-01-30T05:36:57;40.25;;;21.80;;
22603;SDS011;11469;49.024;8.246;2024-01-30T05:39:22;37.63;;;20.45;;
22603;SDS011;11469;49.024;8.246;2024-01-30T05:41:48;35.70;;;20.23;;
22603;SDS011;11469;49.024;8.246;2024-01-30T05:44:13;50.72;;;22.50;;
22603;SDS011;11469;49.024;8.246;2024-01-30T05:46:38;40.38;;;20.60;;
22603;SDS011;11469;49.024;8.246;2024-01-30T05:49:04;38.80;;;21.20;;
22603;SDS011;11469;49.024;8.246;2024-01-30T05:51:29;38.25;;;20.50;;
22603;SDS011;11469;49.024;8.246;2024-01-30T05:53:55;33.83;;;18.98;;
22603;SDS011;11469;49.024;8.246;2024-01-30T05:56:20;38.50;;;20.35;;
22603;SDS011;11469;49.024;8.246;2024-01-30T05:58:45;36.28;;;19.85;;
22603;SDS011;11469;49.024;8.246;2024-01-30T06:01:11;35.65;;;19.02;;
22603;SDS011;11469;49.024;8.246;2024-01-30T06:03:36;42.33;;;21.80;;
22603;SDS011;11469;49.024;8.246;2024-01-30T06:06:02;35.28;;;19.88;;
22603;SDS011;11469;49.024;8.246;2024-01-30T06:08:27;37.90;;;21.20;;
22603;SDS011;11469;49.024;8.246;2024-01-30T06:10:53;41.83;;;21.15;;
22603;SDS011;11469;49.024;8.246;2024-01-30T06:13:18;37.80;;;22.02;;
22603;SDS011;11469;49.024;8.246;2024-01-30T06:15:43;39.17;;;23.40;;
22603;SDS011;11469;49.024;8.246;2024-01-30T06:18:09;39.95;;;22.48;;
22603;SDS011;11469;49.024;8.246;2024-01-30T06:20:34;42.40;;;22.98;;
22603;SDS011;11469;49.024;8.246;2024-01-30T06:23:03;39.22;;;22.38;;
22603;SDS011;11469;49.024;8.246;2024-01-30T06:25:28;53.40;;;27.17;;
22603;SDS011;11469;49.024;8.246;2024-01-30T06:27:53;47.50;;;23.33;;
22603;SDS011;11469;49.024;8.246;2024-01-30T06:30:19;45.80;;;25.17;;
22603;SDS011;11469;49.024;8.246;2024-01-30T06:32:44;51.45;;;26.75;;
22603;SDS011;11469;49.024;8.246;2024-01-30T06:35:10;50.05;;;25.95;;
22603;SDS011;11469;49.024;8.246;2024-01-30T06:37:35;49.28;;;24.75;;
22603;SDS011;11469;49.024;8.246;2024-01-30T06:40:01;52.58;;;26.40;;
22603;SDS011;11469;49.024;8.246;2024-01-30T06:42:26;53.50;;;25.65;;
22603;SDS011;11469;49.024;8.246;2024-01-30T06:44:52;42.90;;;22.73;;
22603;SDS011;11469;49.024;8.246;2024-01-30T06:47:17;44.55;;;23.42;;
22603;SDS011;11469;49.024;8.246;2024-01-30T06:49:42;43.85;;;23.40;;
22603;SDS011;11469;49.024;8.246;2024-01-30T06:52:09;45.50;;;25.80;;
22603;SDS011;11469;49.024;8.246;2024-01-30T06:54:34;45.67;;;23.55;;
22603;SDS011;11469;49.024;8.246;2024-01-30T06:56:59;43.78;;;22.98;;
22603;SDS011;11469;49.024;8.246;2024-01-30T06:59:25;37.83;;;22.85;;
22603;SDS011;11469;49.024;8.246;2024-01-30T07:01:50;41.53;;;22.73;;
22603;SDS011;11469;49.024;8.246;2024-01-30T07:04:16;41.42;;;23.40;;
22603;SDS011;11469;49.024;8.246;2024-01-30T07:06:41;42.00;;;22.83;;
22603;SDS011;11469;49.024;8.246;2024-01-30T07:09:07;50.22;;;25.52;;
22603;SDS011;11469;49.024;8.246;2024-01-30T07:11:33;43.15;;;23.58;;
22603;SDS011;11469;49.024;8.246;2024-01-30T07:13:59;41.05;;;22.45;;
22603;SDS011;11469;49.024;8.246;2024-01-30T07:16:24;40.75;;;23.13;;
22603;SDS011;11469;49.024;8.246;2024-01-30T07:18:49;39.33;;;22.00;;
22603;SDS011;11469;49.024;8.246;2024-01-30T07:21:15;43.13;;;23.02;;
22603;SDS011;11469;49.024;8.246;2024-01-30T07:23:40;43.67;;;23.52;;
22603;SDS011;11469;49.024;8.246;2024-01-30T07:26:07;44.75;;;25.48;;
22603;SDS011;11469;49.024;8.246;2024-01-30T07:28:33;40.85;;;24.02;;
22603;SDS011;11469;49.024;8.246;2024-01-30T07:30:59;40.47;;;22.77;;
22603;SDS011;11469;49.024;8.246;2024-01-30T07:33:25;42.85;;;23.30;;
22603;SDS011;11469;49.024;8.246;2024-01-30T07:35:52;39.38;;;23.15;;
22603;SDS011;11469;49.024;8.246;2024-01-30T07:38:18;47.17;;;25.20;;
22603;SDS011;11469;49.024;8.246;2024-01-30T07:40:43;45.60;;;24.48;;
22603;SDS011;11469;49.024;8.246;2024-01-30T07:43:09;49.65;;;25.80;;
22603;SDS011;11469;49.024;8.246;2024-01-30T07:45:35;44.72;;;25.42;;
22603;SDS011;11469;49.024;8.246;2024-01-30T07:48:00;46.17;;;24.58;;
22603;SDS011;11469;49.024;8.246;2024-01-30T07:50:26;44.38;;;24.60;;
22603;SDS011;11469;49.024;8.246;2024-01-30T07:52:52;44.88;;;24.80;;
22603;SDS011;11469;49.024;8.246;2024-01-30T07:55:20;50.60;;;24.80;;
22603;SDS011;11469;49.024;8.246;2024-01-30T07:57:49;45.15;;;23.73;;
22603;SDS011;11469;49.024;8.246;2024-01-30T08:00:15;44.53;;;26.60;;
22603;SDS011;11469;49.024;8.246;2024-01-30T08:02:41;53.40;;;26.52;;
22603;SDS011;11469;49.024;8.246;2024-01-30T08:05:06;45.10;;;23.10;;
22603;SDS011;11469;49.024;8.246;2024-01-30T08:07:32;45.50;;;25.33;;
22603;SDS011;11469;49.024;8.246;2024-01-30T08:09:57;49.80;;;26.10;;
22603;SDS011;11469;49.024;8.246;2024-01-30T08:12:22;52.72;;;28.00;;
22603;SDS011;11469;49.024;8.246;2024-01-30T08:14:48;45.30;;;25.27;;
22603;SDS011;11469;49.024;8.246;2024-01-30T08:17:13;53.78;;;26.38;;
22603;SDS011;11469;49.024;8.246;2024-01-30T08:19:38;55.08;;;27.30;;
22603;SDS011;11469;49.024;8.246;2024-01-30T08:22:04;50.15;;;28.13;;
22603;SDS011;11469;49.024;8.246;2024-01-30T08:24:29;77.13;;;34.25;;
22603;SDS011;11469;49.024;8.246;2024-01-30T08:26:54;85.30;;;36.50;;
22603;SDS011;11469;49.024;8.246;2024-01-30T08:29:20;66.93;;;32.05;;
22603;SDS011;11469;49.024;8.246;2024-01-30T08:31:45;111.95;;;40.47;;
22603;SDS011;11469;49.024;8.246;2024-01-30T08:34:11;80.25;;;37.47;;
22603;SDS011;11469;49.024;8.246;2024-01-30T08:36:36;88.78;;;38.50;;
22603;SDS011;11469;49.024;8.246;2024-01-30T08:39:02;82.43;;;37.08;;
22603;SDS011;11469;49.024;8.246;2024-01-30T08:41:28;75.80;;;37.35;;
22603;SDS011;11469;49.024;8.246;2024-01-30T08:43:53;72.40;;;35.00;;
22603;SDS011;11469;49.024;8.246;2024-01-30T08:46:19;66.82;;;34.05;;
22603;SDS011;11469;49.024;8.246;2024-01-30T08:48:45;61.22;;;33.00;;
22603;SDS011;11469;49.024;8.246;2024-01-30T08:51:11;58.20;;;32.65;;
22603;SDS011;11469;49.024;8.246;2024-01-30T08:53:37;59.85;;;32.83;;
22603;SDS011;11469;49.024;8.246;2024-01-30T08:56:03;58.40;;;33.28;;
22603;SDS011;11469;49.024;8.246;2024-01-30T08:58:29;62.78;;;33.38;;
22603;SDS011;11469;49.024;8.246;2024-01-30T09:00:54;62.15;;;33.28;;
22603;SDS011;11469;49.024;8.246;2024-01-30T09:03:20;58.88;;;33.60;;
22603;SDS011;11469;49.024;8.246;2024-01-30T09:05:45;58.10;;;30.80;;
22603;SDS011;11469;49.024;8.246;2024-01-30T09:08:10;50.35;;;28.92;;
22603;SDS011;11469;49.024;8.246;2024-01-30T09:10:36;55.42;;;29.35;;
22603;SDS011;11469;49.024;8.246;2024-01-30T09:13:02;50.88;;;29.75;;
22603;SDS011;11469;49.024;8.246;2024-01-30T09:15:28;45.92;;;26.63;;
22603;SDS011;11469;49.024;8.246;2024-01-30T09:17:53;54.28;;;29.33;;
22603;SDS011;11469;49.024;8.246;2024-01-30T09:20:18;48.92;;;29.95;;
22603;SDS011;11469;49.024;8.246;2024-01-30T09:22:45;46.85;;;28.30;;
22603;SDS011;11469;49.024;8.246;2024-01-30T09:25:10;49.45;;;28.85;;
22603;SDS011;11469;49.024;8.246;2024-01-30T09:27:36;52.58;;;29.38;;
22603;SDS011;11469;49.024;8.246;2024-01-30T09:30:01;54.03;;;28.50;;
22603;SDS011;11469;49.024;8.246;2024-01-30T09:32:27;51.80;;;30.10;;
22603;SDS011;11469;49.024;8.246;2024-01-30T09:34:52;53.42;;;28.52;;
22603;SDS011;11469;49.024;8.246;2024-01-30T09:37:17;55.22;;;29.40;;
22603;SDS011;11469;49.024;8.246;2024-01-30T09:39:43;56.17;;;30.67;;
22603;SDS011;11469;49.024;8.246;2024-01-30T09:42:14;53.28;;;31.08;;
22603;SDS011;11469;49.024;8.246;2024-01-30T09:44:47;52.88;;;28.13;;
22603;SDS011;11469;49.024;8.246;2024-01-30T09:47:16;54.10;;;28.15;;
22603;SDS011;11469;49.024;8.246;2024-01-30T09:49:43;53.28;;;28.13;;
22603;SDS011;11469;49.024;8.246;2024-01-30T09:52:08;46.25;;;26.83;;
22603;SDS011;11469;49.024;8.246;2024-01-30T09:54:34;49.83;;;28.23;;
22603;SDS011;11469;49.024;8.246;2024-01-30T09:57:00;51.22;;;27.65;;
22603;SDS011;11469;49.024;8.246;2024-01-30T09:59:26;53.10;;;28.40;;
22603;SDS011;11469;49.024;8.246;2024-01-30T10:01:51;53.22;;;27.63;;
22603;SDS011;11469;49.024;8.246;2024-01-30T10:04:17;47.90;;;28.80;;
22603;SDS011;11469;49.024;8.246;2024-01-30T10:06:42;51.60;;;27.38;;
22603;SDS011;11469;49.024;8.246;2024-01-30T10:09:08;49.58;;;27.45;;
22603;SDS011;11469;49.024;8.246;2024-01-30T10:11:34;50.65;;;28.63;;
22603;SDS011;11469;49.024;8.246;2024-01-30T10:14:01;47.90;;;27.63;;
22603;SDS011;11469;49.024;8.246;2024-01-30T10:16:26;44.42;;;27.10;;
22603;SDS011;11469;49.024;8.246;2024-01-30T10:18:51;43.47;;;25.73;;
22603;SDS011;11469;49.024;8.246;2024-01-30T10:21:17;49.65;;;27.13;;
22603;SDS011;11469;49.024;8.246;2024-01-30T10:23:43;47.42;;;26.20;;
22603;SDS011;11469;49.024;8.246;2024-01-30T10:26:09;43.00;;;26.17;;
22603;SDS011;11469;49.024;8.246;2024-01-30T10:28:35;48.22;;;26.25;;
22603;SDS011;11469;49.024;8.246;2024-01-30T10:31:00;42.08;;;25.27;;
22603;SDS011;11469;49.024;8.246;2024-01-30T10:33:28;44.60;;;25.38;;
22603;SDS011;11469;49.024;8.246;2024-01-30T10:35:58;43.22;;;25.27;;
22603;SDS011;11469;49.024;8.246;2024-01-30T10:38:27;41.88;;;23.48;;
22603;SDS011;11469;49.024;8.246;2024-01-30T10:40:58;48.67;;;25.20;;
22603;SDS011;11469;49.024;8.246;2024-01-30T10:44:02;46.17;;;25.42;;
22603;SDS011;11469;49.024;8.246;2024-01-30T10:46:23;41.35;;;24.95;;
22603;SDS011;11469;49.024;8.246;2024-01-30T10:48:57;46.00;;;25.13;;
22603;SDS011;11469;49.024;8.246;2024-01-30T10:51:27;44.92;;;23.90;;
22603;SDS011;11469;49.024;8.246;2024-01-30T10:53:53;38.85;;;23.08;;
22603;SDS011;11469;49.024;8.246;2024-01-30T10:56:23;38.75;;;24.20;;
22603;SDS011;11469;49.024;8.246;2024-01-30T10:58:50;45.03;;;26.20;;
22603;SDS011;11469;49.024;8.246;2024-01-30T11:01:20;41.63;;;24.27;;
22603;SDS011;11469;49.024;8.246;2024-01-30T11:03:53;45.00;;;24.50;;
22603;SDS011;11469;49.024;8.246;2024-01-30T11:06:22;38.60;;;22.90;;
22603;SDS011;11469;49.024;8.246;2024-01-30T11:09:10;38.78;;;22.50;;
22603;SDS011;11469;49.024;8.246;2024-01-30T11:11:50;38.10;;;22.60;;
22603;SDS011;11469;49.024;8.246;2024-01-30T11:14:16;35.08;;;20.90;;
22603;SDS011;11469;49.024;8.246;2024-01-30T11:16:42;37.88;;;21.83;;
22603;SDS011;11469;49.024;8.246;2024-01-30T11:19:10;38.10;;;20.90;;
22603;SDS011;11469;49.024;8.246;2024-01-30T11:21:43;35.45;;;19.73;;
22603;SDS011;11469;49.024;8.246;2024-01-30T11:24:08;41.90;;;21.83;;
22603;SDS011;11469;49.024;8.246;2024-01-30T11:26:34;39.50;;;21.30;;
22603;SDS011;11469;49.024;8.246;2024-01-30T11:29:02;36.40;;;20.52;;
22603;SDS011;11469;49.024;8.246;2024-01-30T11:31:29;36.67;;;20.63;;
22603;SDS011;11469;49.024;8.246;2024-01-30T11:33:57;32.97;;;20.02;;
22603;SDS011;11469;49.024;8.246;2024-01-30T11:36:25;29.30;;;18.83;;
22603;SDS011;11469;49.024;8.246;2024-01-30T11:38:51;36.38;;;19.67;;
22603;SDS011;11469;49.024;8.246;2024-01-30T11:41:17;34.88;;;18.85;;
22603;SDS011;11469;49.024;8.246;2024-01-30T11:43:43;30.35;;;17.55;;
22603;SDS011;11469;49.024;8.246;2024-01-30T11:46:16;27.13;;;15.82;;
22603;SDS011;11469;49.024;8.246;2024-01-30T11:48:41;24.48;;;13.80;;
22603;SDS011;11469;49.024;8.246;2024-01-30T11:51:06;20.30;;;12.48;;
22603;SDS011;11469;49.024;8.246;2024-01-30T11:53:32;23.23;;;11.57;;
22603;SDS011;11469;49.024;8.246;2024-01-30T11:55:57;16.92;;;10.18;;
22603;SDS011;11469;49.024;8.246;2024-01-30T11:58:24;21.33;;;11.82;;
22603;SDS011;11469;49.024;8.246;2024-01-30T12:00:57;19.50;;;10.82;;
22603;SDS011;11469;49.024;8.246;2024-01-30T12:03:22;21.48;;;9.77;;
22603;SDS011;11469;49.024;8.246;2024-01-30T12:05:54;21.40;;;8.20;;
22603;SDS011;11469;49.024;8.246;2024-01-30T12:08:21;19.55;;;9.35;;
22603;SDS011;11469;49.024;8.246;2024-01-30T12:10:54;20.75;;;9.13;;
22603;SDS011;11469;49.024;8.246;2024-01-30T12:13:20;16.63;;;8.88;;
22603;SDS011;11469;49.024;8.246;2024-01-30T12:15:46;16.15;;;9.48;;
22603;SDS011;11469;49.024;8.246;2024-01-30T12:18:11;15.38;;;9.15;;
22603;SDS011;11469;49.024;8.246;2024-01-30T12:20:36;17.98;;;7.95;;
22603;SDS011;11469;49.024;8.246;2024-01-30T12:23:02;16.67;;;7.95;;
22603;SDS011;11469;49.024;8.246;2024-01-30T12:25:28;18.83;;;7.53;;
22603;SDS011;11469;49.024;8.246;2024-01-30T12:27:53;20.63;;;8.23;;
22603;SDS011;11469;49.024;8.246;2024-01-30T12:30:20;16.25;;;7.53;;
22603;SDS011;11469;49.024;8.246;2024-01-30T12:32:46;13.75;;;7.63;;
22603;SDS011;11469;49.024;8.246;2024-01-30T12:37:39;17.60;;;7.68;;
22603;SDS011;11469;49.024;8.246;2024-01-30T12:40:05;13.27;;;7.57;;
22603;SDS011;11469;49.024;8.246;2024-01-30T12:42:32;20.75;;;8.70;;
22603;SDS011;11469;49.024;8.246;2024-01-30T12:44:58;14.48;;;7.68;;
22603;SDS011;11469;49.024;8.246;2024-01-30T12:47:24;17.38;;;7.72;;
22603;SDS011;11469;49.024;8.246;2024-01-30T12:49:50;27.42;;;8.23;;
22603;SDS011;11469;49.024;8.246;2024-01-30T12:52:18;23.50;;;7.47;;
22603;SDS011;11469;49.024;8.246;2024-01-30T12:54:44;15.68;;;8.23;;
22603;SDS011;11469;49.024;8.246;2024-01-30T12:57:10;21.17;;;8.93;;
22603;SDS011;11469;49.024;8.246;2024-01-30T12:59:35;18.00;;;7.90;;
22603;SDS011;11469;49.024;8.246;2024-01-30T13:02:01;15.75;;;7.38;;
22603;SDS011;11469;49.024;8.246;2024-01-30T13:04:28;18.25;;;8.05;;
22603;SDS011;11469;49.024;8.246;2024-01-30T13:06:54;16.60;;;7.63;;
22603;SDS011;11469;49.024;8.246;2024-01-30T13:09:19;13.13;;;6.80;;
22603;SDS011;11469;49.024;8.246;2024-01-30T13:11:45;15.45;;;7.55;;
22603;SDS011;11469;49.024;8.246;2024-01-30T13:14:10;24.92;;;8.38;;
22603;SDS011;11469;49.024;8.246;2024-01-30T13:16:36;20.55;;;6.60;;
22603;SDS011;11469;49.024;8.246;2024-01-30T13:19:01;16.17;;;7.10;;
22603;SDS011;11469;49.024;8.246;2024-01-30T13:21:27;15.30;;;6.40;;
22603;SDS011;11469;49.024;8.246;2024-01-30T13:23:53;17.92;;;7.07;;
22603;SDS011;11469;49.024;8.246;2024-01-30T13:26:19;13.20;;;7.28;;
22603;SDS011;11469;49.024;8.246;2024-01-30T13:28:45;18.48;;;7.40;;
22603;SDS011;11469;49.024;8.246;2024-01-30T13:31:11;18.13;;;7.40;;
22603;SDS011;11469;49.024;8.246;2024-01-30T13:33:37;17.65;;;6.95;;
22603;SDS011;11469;49.024;8.246;2024-01-30T13:36:02;21.13;;;6.80;;
22603;SDS011;11469;49.024;8.246;2024-01-30T13:38:28;20.50;;;7.88;;
22603;SDS011;11469;49.024;8.246;2024-01-30T13:40:53;13.30;;;6.15;;
22603;SDS011;11469;49.024;8.246;2024-01-30T13:43:19;13.90;;;6.28;;
22603;SDS011;11469;49.024;8.246;2024-01-30T13:45:44;22.35;;;6.90;;
22603;SDS011;11469;49.024;8.246;2024-01-30T13:48:10;21.55;;;6.40;;
22603;SDS011;11469;49.024;8.246;2024-01-30T13:50:36;12.98;;;6.28;;
22603;SDS011;11469;49.024;8.246;2024-01-30T13:53:02;16.65;;;6.72;;
22603;SDS011;11469;49.024;8.246;2024-01-30T13:55:29;14.43;;;7.18;;
22603;SDS011;11469;49.024;8.246;2024-01-30T13:57:54;10.63;;;6.45;;
22603;SDS011;11469;49.024;8.246;2024-01-30T14:00:21;14.60;;;6.68;;
22603;SDS011;11469;49.024;8.246;2024-01-30T14:02:47;17.27;;;7.22;;
22603;SDS011;11469;49.024;8.246;2024-01-30T14:05:13;14.70;;;7.07;;
22603;SDS011;11469;49.024;8.246;2024-01-30T14:07:39;12.38;;;6.65;;
22603;SDS011;11469;49.024;8.246;2024-01-30T14:10:05;19.27;;;6.60;;
22603;SDS011;11469;49.024;8.246;2024-01-30T14:12:32;15.77;;;6.57;;
22603;SDS011;11469;49.024;8.246;2024-01-30T14:14:57;13.80;;;7.00;;
22603;SDS011;11469;49.024;8.246;2024-01-30T14:17:24;13.48;;;7.10;;
22603;SDS011;11469;49.024;8.246;2024-01-30T14:19:49;19.38;;;7.05;;